sensor_id;sensor_type;location;lat;lon;timestamp;pressure;altitude;pressure_sealevel;temperature;humidity
29815;BME280;16708;50.426;7.664;2023-06-22T00:00:00;988.34;;;21.75;100.00
29815;BME280;16708;50.426;7.664;2023-06-22T00:04:54;988.31;;;21.67;100.00
29815;BME280;16708;50.426;7.664;2023-06-22T00:09:49;988.37;;;21.53;100.00
29815;BME280;16708;50.426;7.664;2023-06-22T00:14:42;988.29;;;21.51;100.00
29815;BME280;16708;50.426;7.664;2023-06-22T00:19:37;988.30;;;21.66;100.00
29815;BME280;16708;50.426;7.664;2023-06-22T00:24:31;988.46;;;21.81;100.00
29815;BME280;16708;50.426;7.664;2023-06-22T00:29:25;988.57;;;21.93;100.00
29815;BME280;16708;50.426;7.664;2023-06-22T00:34:19;988.77;;;21.87;100.00
29815;BME280;16708;50.426;7.664;2023-06-22T00:39:13;988.74;;;21.67;100.00
29815;BME280;16708;50.426;7.664;2023-06-22T00:44:07;988.69;;;21.58;100.00
29815;BME280;16708;50.426;7.664;2023-06-22T00:49:02;988.76;;;21.21;100.00
29815;BME280;16708;50.426;7.664;2023-06-22T00:53:56;988.86;;;21.12;100.00
29815;BME280;16708;50.426;7.664;2023-06-22T00:58:49;989.05;;;21.05;100.00
29815;BME280;16708;50.426;7.664;2023-06-22T01:03:42;989.02;;;20.87;100.00
29815;BME280;16708;50.426;7.664;2023-06-22T01:08:35;988.92;;;20.97;100.00
29815;BME280;16708;50.426;7.664;2023-06-22T01:13:29;988.92;;;21.07;100.00
29815;BME280;16708;50.426;7.664;2023-06-22T01:18:23;989.01;;;20.98;100.00
29815;BME280;16708;50.426;7.664;2023-06-22T01:23:17;989.00;;;20.68;100.00
29815;BME280;16708;50.426;7.664;2023-06-22T01:28:09;988.91;;;20.45;100.00
29815;BME280;16708;50.426;7.664;2023-06-22T01:33:03;988.86;;;20.38;100.00
29815;BME280;16708;50.426;7.664;2023-06-22T01:37:57;988.82;;;20.17;100.00
29815;BME280;16708;50.426;7.664;2023-06-22T01:42:50;988.82;;;19.99;100.00
29815;BME280;16708;50.426;7.664;2023-06-22T01:47:42;988.77;;;19.90;100.00
29815;BME280;16708;50.426;7.664;2023-06-22T01:52:36;988.73;;;20.01;100.00
29815;BME280;16708;50.426;7.664;2023-06-22T01:57:30;988.61;;;20.09;100.00
29815;BME280;16708;50.426;7.664;2023-06-22T02:02:25;988.67;;;20.16;100.00
29815;BME280;16708;50.426;7.664;2023-06-22T02:07:18;988.75;;;19.90;100.00
29815;BME280;16708;50.426;7.664;2023-06-22T02:12:12;988.87;;;19.94;100.00
29815;BME280;16708;50.426;7.664;2023-06-22T02:17:05;989.04;;;19.74;100.00
29815;BME280;16708;50.426;7.664;2023-06-22T02:21:58;989.05;;;19.87;100.00
29815;BME280;16708;50.426;7.664;2023-06-22T02:26:52;989.12;;;19.78;100.00
29815;BME280;16708;50.426;7.664;2023-06-22T02:31:47;988.95;;;19.76;100.00
29815;BME280;16708;50.426;7.664;2023-06-22T02:36:41;988.73;;;19.73;100.00
29815;BME280;16708;50.426;7.664;2023-06-22T02:41:34;988.46;;;19.72;100.00
29815;BME280;16708;50.426;7.664;2023-06-22T02:46:28;988.29;;;19.71;100.00
29815;BME280;16708;50.426;7.664;2023-06-22T02:51:22;988.44;;;19.73;100.00
29815;BME280;16708;50.426;7.664;2023-06-22T02:56:18;988.45;;;19.60;100.00
29815;BME280;16708;50.426;7.664;2023-06-22T03:01:10;988.42;;;19.50;100.00
29815;BME280;16708;50.426;7.664;2023-06-22T03:06:04;988.52;;;19.51;100.00
29815;BME280;16708;50.426;7.664;2023-06-22T03:10:59;988.43;;;19.58;100.00
29815;BME280;16708;50.426;7.664;2023-06-22T03:15:51;988.46;;;19.62;100.00
29815;BME280;16708;50.426;7.664;2023-06-22T03:20:45;988.60;;;19.68;100.00
29815;BME280;16708;50.426;7.664;2023-06-22T03:25:39;988.53;;;19.83;100.00
29815;BME280;16708;50.426;7.664;2023-06-22T03:30:33;988.47;;;19.76;100.00
29815;BME280;16708;50.426;7.664;2023-06-22T03:35:26;988.36;;;19.87;100.00
29815;BME280;16708;50.426;7.664;2023-06-22T03:40:21;988.46;;;19.82;100.00
29815;BME280;16708;50.426;7.664;2023-06-22T03:45:15;988.43;;;19.85;100.00
29815;BME280;16708;50.426;7.664;2023-06-22T03:50:09;988.43;;;19.83;100.00
29815;BME280;16708;50.426;7.664;2023-06-22T03:55:04;988.37;;;19.83;100.00
29815;BME280;16708;50.426;7.664;2023-06-22T03:59:58;988.30;;;19.92;100.00
29815;BME280;16708;50.426;7.664;2023-06-22T04:04:51;988.27;;;19.91;100.00
29815;BME280;16708;50.426;7.664;2023-06-22T04:09:46;988.32;;;19.91;100.00
29815;BME280;16708;50.426;7.664;2023-06-22T04:14:39;988.37;;;19.93;100.00
29815;BME280;16708;50.426;7.664;2023-06-22T04:19:34;988.36;;;19.95;100.00
29815;BME280;16708;50.426;7.664;2023-06-22T04:24:28;988.38;;;19.86;100.00
29815;BME280;16708;50.426;7.664;2023-06-22T04:29:22;988.35;;;19.88;100.00
29815;BME280;16708;50.426;7.664;2023-06-22T04:34:16;988.21;;;19.92;100.00
29815;BME280;16708;50.426;7.664;2023-06-22T04:39:09;988.13;;;20.09;100.00
29815;BME280;16708;50.426;7.664;2023-06-22T04:44:04;988.11;;;20.30;100.00
29815;BME280;16708;50.426;7.664;2023-06-22T04:48:58;988.14;;;20.35;100.00
29815;BME280;16708;50.426;7.664;2023-06-22T04:53:52;988.04;;;20.42;100.00
29815;BME280;16708;50.426;7.664;2023-06-22T04:58:46;988.05;;;20.55;100.00
29815;BME280;16708;50.426;7.664;2023-06-22T05:03:40;988.02;;;20.71;100.00
29815;BME280;16708;50.426;7.664;2023-06-22T05:08:34;987.90;;;20.94;100.00
29815;BME280;16708;50.426;7.664;2023-06-22T05:13:29;988.00;;;21.13;100.00
29815;BME280;16708;50.426;7.664;2023-06-22T05:18:23;988.01;;;21.26;100.00
29815;BME280;16708;50.426;7.664;2023-06-22T05:23:18;987.92;;;21.53;100.00
29815;BME280;16708;50.426;7.664;2023-06-22T05:28:09;987.86;;;21.82;100.00
29815;BME280;16708;50.426;7.664;2023-06-22T05:33:04;987.84;;;22.08;100.00
29815;BME280;16708;50.426;7.664;2023-06-22T05:37:59;987.81;;;22.11;100.00
29815;BME280;16708;50.426;7.664;2023-06-22T05:42:53;987.87;;;22.25;100.00
29815;BME280;16708;50.426;7.664;2023-06-22T05:47:47;987.97;;;22.21;100.00
29815;BME280;16708;50.426;7.664;2023-06-22T05:52:41;987.86;;;22.06;100.00
29815;BME280;16708;50.426;7.664;2023-06-22T05:57:33;987.89;;;22.06;100.00
29815;BME280;16708;50.426;7.664;2023-06-22T06:02:27;987.87;;;22.15;100.00
29815;BME280;16708;50.426;7.664;2023-06-22T06:07:21;987.94;;;22.60;100.00
29815;BME280;16708;50.426;7.664;2023-06-22T06:12:16;987.98;;;23.15;100.00
29815;BME280;16708;50.426;7.664;2023-06-22T06:17:11;987.99;;;23.41;100.00
29815;BME280;16708;50.426;7.664;2023-06-22T06:22:05;988.19;;;23.61;100.00
29815;BME280;16708;50.426;7.664;2023-06-22T06:26:59;988.12;;;23.78;100.00
29815;BME280;16708;50.426;7.664;2023-06-22T06:31:54;988.09;;;24.34;100.00
29815;BME280;16708;50.426;7.664;2023-06-22T06:36:48;988.03;;;24.43;100.00
29815;BME280;16708;50.426;7.664;2023-06-22T06:41:40;987.96;;;24.26;100.00
29815;BME280;16708;50.426;7.664;2023-06-22T06:46:35;987.99;;;24.59;100.00
29815;BME280;16708;50.426;7.664;2023-06-22T06:51:30;988.10;;;24.22;100.00
29815;BME280;16708;50.426;7.664;2023-06-22T06:56:24;987.99;;;24.46;100.00
29815;BME280;16708;50.426;7.664;2023-06-22T07:01:19;987.77;;;24.95;100.00
29815;BME280;16708;50.426;7.664;2023-06-22T07:06:13;987.95;;;25.28;100.00
29815;BME280;16708;50.426;7.664;2023-06-22T07:11:08;987.83;;;24.93;100.00
29815;BME280;16708;50.426;7.664;2023-06-22T07:16:02;987.80;;;25.20;100.00
29815;BME280;16708;50.426;7.664;2023-06-22T07:20:57;987.79;;;25.55;100.00
29815;BME280;16708;50.426;7.664;2023-06-22T07:25:52;987.82;;;25.37;100.00
29815;BME280;16708;50.426;7.664;2023-06-22T07:30:46;987.75;;;25.41;100.00
29815;BME280;16708;50.426;7.664;2023-06-22T07:35:42;987.64;;;25.00;100.00
29815;BME280;16708;50.426;7.664;2023-06-22T07:40:35;987.57;;;25.15;100.00
29815;BME280;16708;50.426;7.664;2023-06-22T07:45:29;987.56;;;25.32;100.00
29815;BME280;16708;50.426;7.664;2023-06-22T07:50:23;987.60;;;25.43;100.00
29815;BME280;16708;50.426;7.664;2023-06-22T07:55:17;987.44;;;25.79;100.00
29815;BME280;16708;50.426;7.664;2023-06-22T08:00:12;987.41;;;26.04;100.00
29815;BME280;16708;50.426;7.664;2023-06-22T08:05:06;987.31;;;25.90;100.00
29815;BME280;16708;50.426;7.664;2023-06-22T08:10:00;987.13;;;25.92;100.00
29815;BME280;16708;50.426;7.664;2023-06-22T08:14:54;986.97;;;26.14;100.00
29815;BME280;16708;50.426;7.664;2023-06-22T08:19:48;986.89;;;26.23;100.00
29815;BME280;16708;50.426;7.664;2023-06-22T08:24:42;986.77;;;26.18;100.00
29815;BME280;16708;50.426;7.664;2023-06-22T08:29:37;986.82;;;26.87;100.00
29815;BME280;16708;50.426;7.664;2023-06-22T08:34:31;986.88;;;27.11;100.00
29815;BME280;16708;50.426;7.664;2023-06-22T08:39:25;986.99;;;26.98;100.00
29815;BME280;16708;50.426;7.664;2023-06-22T08:44:19;986.79;;;27.38;100.00
29815;BME280;16708;50.426;7.664;2023-06-22T08:49:14;986.93;;;27.44;100.00
29815;BME280;16708;50.426;7.664;2023-06-22T08:54:09;986.88;;;27.41;100.00
29815;BME280;16708;50.426;7.664;2023-06-22T08:59:03;986.69;;;27.72;100.00
29815;BME280;16708;50.426;7.664;2023-06-22T09:03:58;986.57;;;28.11;100.00
29815;BME280;16708;50.426;7.664;2023-06-22T09:08:51;986.61;;;28.36;100.00
29815;BME280;16708;50.426;7.664;2023-06-22T09:13:46;986.57;;;27.88;100.00
29815;BME280;16708;50.426;7.664;2023-06-22T09:18:39;986.24;;;28.44;100.00
29815;BME280;16708;50.426;7.664;2023-06-22T09:23:42;986.01;;;28.79;100.00
29815;BME280;16708;50.426;7.664;2023-06-22T09:28:28;986.03;;;29.26;100.00
29815;BME280;16708;50.426;7.664;2023-06-22T09:33:20;985.98;;;29.11;100.00
29815;BME280;16708;50.426;7.664;2023-06-22T09:38:14;985.83;;;29.16;100.00
29815;BME280;16708;50.426;7.664;2023-06-22T09:43:09;985.81;;;29.30;100.00
29815;BME280;16708;50.426;7.664;2023-06-22T09:48:04;985.71;;;29.04;100.00
29815;BME280;16708;50.426;7.664;2023-06-22T09:52:58;985.66;;;29.07;100.00
29815;BME280;16708;50.426;7.664;2023-06-22T09:57:53;985.62;;;28.88;100.00
29815;BME280;16708;50.426;7.664;2023-06-22T10:02:47;985.61;;;28.05;100.00
29815;BME280;16708;50.426;7.664;2023-06-22T10:07:40;985.52;;;27.43;100.00
29815;BME280;16708;50.426;7.664;2023-06-22T10:12:34;985.56;;;26.99;100.00
29815;BME280;16708;50.426;7.664;2023-06-22T10:17:28;985.53;;;26.77;100.00
29815;BME280;16708;50.426;7.664;2023-06-22T10:22:23;985.57;;;26.48;100.00
29815;BME280;16708;50.426;7.664;2023-06-22T10:27:17;986.33;;;26.28;100.00
29815;BME280;16708;50.426;7.664;2023-06-22T10:32:11;986.76;;;25.77;100.00
29815;BME280;16708;50.426;7.664;2023-06-22T10:37:04;986.59;;;25.12;100.00
29815;BME280;16708;50.426;7.664;2023-06-22T10:41:58;986.60;;;24.44;100.00
29815;BME280;16708;50.426;7.664;2023-06-22T10:46:52;986.35;;;24.19;100.00
29815;BME280;16708;50.426;7.664;2023-06-22T10:51:46;985.76;;;25.25;100.00
29815;BME280;16708;50.426;7.664;2023-06-22T10:56:40;985.63;;;29.17;100.00
29815;BME280;16708;50.426;7.664;2023-06-22T11:01:35;985.72;;;32.14;100.00
29815;BME280;16708;50.426;7.664;2023-06-22T11:06:30;985.74;;;32.91;100.00
29815;BME280;16708;50.426;7.664;2023-06-22T11:11:25;985.77;;;32.45;100.00
29815;BME280;16708;50.426;7.664;2023-06-22T11:16:19;985.85;;;32.75;100.00
29815;BME280;16708;50.426;7.664;2023-06-22T11:21:14;985.85;;;31.37;100.00
29815;BME280;16708;50.426;7.664;2023-06-22T11:26:09;985.73;;;31.35;100.00
29815;BME280;16708;50.426;7.664;2023-06-22T11:31:03;985.57;;;31.75;100.00
29815;BME280;16708;50.426;7.664;2023-06-22T11:35:57;985.54;;;29.93;100.00
29815;BME280;16708;50.426;7.664;2023-06-22T11:40:50;985.42;;;29.09;100.00
29815;BME280;16708;50.426;7.664;2023-06-22T11:45:43;985.31;;;28.01;100.00
29815;BME280;16708;50.426;7.664;2023-06-22T11:50:37;985.28;;;29.19;100.00
29815;BME280;16708;50.426;7.664;2023-06-22T11:55:31;985.17;;;29.42;100.00
29815;BME280;16708;50.426;7.664;2023-06-22T12:00:25;985.01;;;29.76;100.00
29815;BME280;16708;50.426;7.664;2023-06-22T12:05:20;984.91;;;29.81;100.00
29815;BME280;16708;50.426;7.664;2023-06-22T12:10:14;984.79;;;30.43;100.00
29815;BME280;16708;50.426;7.664;2023-06-22T12:15:09;984.74;;;31.33;100.00
29815;BME280;16708;50.426;7.664;2023-06-22T12:20:05;984.58;;;33.09;100.00
29815;BME280;16708;50.426;7.664;2023-06-22T12:25:01;984.71;;;33.44;84.77
29815;BME280;16708;50.426;7.664;2023-06-22T12:29:54;984.53;;;32.58;95.55
29815;BME280;16708;50.426;7.664;2023-06-22T12:34:49;984.59;;;34.07;90.11
29815;BME280;16708;50.426;7.664;2023-06-22T12:39:44;984.40;;;35.59;79.46
29815;BME280;16708;50.426;7.664;2023-06-22T12:44:39;984.44;;;36.07;74.88
29815;BME280;16708;50.426;7.664;2023-06-22T12:49:34;984.42;;;35.43;80.02
29815;BME280;16708;50.426;7.664;2023-06-22T12:54:28;984.05;;;34.64;81.89
29815;BME280;16708;50.426;7.664;2023-06-22T12:59:21;983.85;;;32.79;91.39
29815;BME280;16708;50.426;7.664;2023-06-22T13:04:15;983.77;;;33.43;81.05
29815;BME280;16708;50.426;7.664;2023-06-22T13:09:08;983.67;;;34.55;58.76
29815;BME280;16708;50.426;7.664;2023-06-22T13:14:03;983.47;;;33.08;69.88
29815;BME280;16708;50.426;7.664;2023-06-22T13:18:57;983.59;;;35.98;66.87
29815;BME280;16708;50.426;7.664;2023-06-22T13:23:50;983.46;;;36.26;61.28
29815;BME280;16708;50.426;7.664;2023-06-22T13:28:45;983.10;;;36.57;49.16
29815;BME280;16708;50.426;7.664;2023-06-22T13:33:40;982.94;;;36.57;46.16
29815;BME280;16708;50.426;7.664;2023-06-22T13:38:35;982.70;;;35.98;48.10
29815;BME280;16708;50.426;7.664;2023-06-22T13:43:29;982.61;;;35.15;52.06
29815;BME280;16708;50.426;7.664;2023-06-22T13:48:22;982.36;;;31.63;75.19
29815;BME280;16708;50.426;7.664;2023-06-22T13:53:15;982.14;;;30.46;82.14
29815;BME280;16708;50.426;7.664;2023-06-22T13:58:08;982.10;;;29.73;88.51
29815;BME280;16708;50.426;7.664;2023-06-22T14:03:00;981.59;;;29.30;91.74
29815;BME280;16708;50.426;7.664;2023-06-22T14:07:53;981.70;;;28.99;95.21
29815;BME280;16708;50.426;7.664;2023-06-22T14:12:47;981.93;;;28.72;100.00
29815;BME280;16708;50.426;7.664;2023-06-22T14:17:40;981.67;;;28.53;100.00
29815;BME280;16708;50.426;7.664;2023-06-22T14:22:34;981.73;;;28.42;100.00
29815;BME280;16708;50.426;7.664;2023-06-22T14:27:29;982.60;;;27.93;100.00
29815;BME280;16708;50.426;7.664;2023-06-22T14:32:22;983.65;;;23.87;100.00
29815;BME280;16708;50.426;7.664;2023-06-22T14:37:16;983.12;;;21.00;100.00
29815;BME280;16708;50.426;7.664;2023-06-22T14:42:09;982.61;;;20.43;100.00
29815;BME280;16708;50.426;7.664;2023-06-22T14:47:03;983.49;;;20.79;100.00
29815;BME280;16708;50.426;7.664;2023-06-22T14:51:58;984.90;;;19.68;100.00
29815;BME280;16708;50.426;7.664;2023-06-22T14:56:51;984.85;;;20.04;100.00
29815;BME280;16708;50.426;7.664;2023-06-22T15:01:44;985.06;;;19.99;100.00
29815;BME280;16708;50.426;7.664;2023-06-22T15:06:39;984.80;;;19.92;100.00
29815;BME280;16708;50.426;7.664;2023-06-22T15:11:33;984.56;;;19.90;100.00
29815;BME280;16708;50.426;7.664;2023-06-22T15:16:27;983.91;;;19.87;100.00
29815;BME280;16708;50.426;7.664;2023-06-22T15:21:21;983.55;;;19.88;100.00
29815;BME280;16708;50.426;7.664;2023-06-22T15:26:15;983.36;;;19.89;100.00
29815;BME280;16708;50.426;7.664;2023-06-22T15:31:08;983.62;;;20.07;100.00
29815;BME280;16708;50.426;7.664;2023-06-22T15:36:03;983.73;;;20.23;100.00
29815;BME280;16708;50.426;7.664;2023-06-22T15:40:57;983.50;;;20.26;100.00
29815;BME280;16708;50.426;7.664;2023-06-22T15:45:52;983.36;;;20.30;100.00
29815;BME280;16708;50.426;7.664;2023-06-22T15:50:46;983.55;;;20.19;100.00
29815;BME280;16708;50.426;7.664;2023-06-22T15:55:41;983.66;;;20.50;100.00
29815;BME280;16708;50.426;7.664;2023-06-22T16:00:35;983.70;;;20.96;100.00
29815;BME280;16708;50.426;7.664;2023-06-22T16:05:29;983.53;;;21.14;100.00
29815;BME280;16708;50.426;7.664;2023-06-22T16:10:24;983.24;;;21.50;100.00
29815;BME280;16708;50.426;7.664;2023-06-22T16:15:18;982.95;;;21.81;100.00
29815;BME280;16708;50.426;7.664;2023-06-22T16:20:12;982.58;;;21.91;100.00
29815;BME280;16708;50.426;7.664;2023-06-22T16:25:07;982.37;;;22.14;100.00
29815;BME280;16708;50.426;7.664;2023-06-22T16:30:01;982.19;;;22.38;100.00
29815;BME280;16708;50.426;7.664;2023-06-22T16:34:56;982.15;;;22.49;100.00
29815;BME280;16708;50.426;7.664;2023-06-22T16:39:50;982.13;;;22.81;100.00
29815;BME280;16708;50.426;7.664;2023-06-22T16:44:46;982.14;;;23.18;100.00
29815;BME280;16708;50.426;7.664;2023-06-22T16:49:39;982.35;;;23.39;100.00
29815;BME280;16708;50.426;7.664;2023-06-22T16:54:34;982.36;;;23.72;100.00
29815;BME280;16708;50.426;7.664;2023-06-22T16:59:28;982.43;;;23.81;100.00
29815;BME280;16708;50.426;7.664;2023-06-22T17:04:23;982.49;;;23.75;100.00
29815;BME280;16708;50.426;7.664;2023-06-22T17:09:18;982.55;;;24.61;100.00
29815;BME280;16708;50.426;7.664;2023-06-22T17:14:12;982.75;;;24.32;100.00
29815;BME280;16708;50.426;7.664;2023-06-22T17:19:06;982.73;;;24.97;100.00
29815;BME280;16708;50.426;7.664;2023-06-22T17:24:01;982.66;;;25.99;100.00
29815;BME280;16708;50.426;7.664;2023-06-22T17:28:55;982.62;;;27.34;100.00
29815;BME280;16708;50.426;7.664;2023-06-22T17:33:50;982.55;;;28.01;100.00
29815;BME280;16708;50.426;7.664;2023-06-22T17:38:44;982.55;;;28.04;100.00
29815;BME280;16708;50.426;7.664;2023-06-22T17:43:39;982.52;;;26.34;100.00
29815;BME280;16708;50.426;7.664;2023-06-22T17:48:33;982.33;;;26.60;100.00
29815;BME280;16708;50.426;7.664;2023-06-22T17:53:27;982.29;;;27.29;100.00
29815;BME280;16708;50.426;7.664;2023-06-22T17:58:21;982.27;;;26.32;100.00
29815;BME280;16708;50.426;7.664;2023-06-22T18:03:16;982.26;;;26.43;100.00
29815;BME280;16708;50.426;7.664;2023-06-22T18:08:10;982.25;;;25.58;100.00
29815;BME280;16708;50.426;7.664;2023-06-22T18:13:04;982.04;;;25.42;100.00
29815;BME280;16708;50.426;7.664;2023-06-22T18:17:56;981.98;;;23.52;100.00
29815;BME280;16708;50.426;7.664;2023-06-22T18:22:50;982.04;;;23.28;100.00
29815;BME280;16708;50.426;7.664;2023-06-22T18:27:43;982.10;;;22.97;100.00
29815;BME280;16708;50.426;7.664;2023-06-22T18:32:37;982.16;;;22.86;100.00
29815;BME280;16708;50.426;7.664;2023-06-22T18:37:31;982.19;;;22.65;100.00
29815;BME280;16708;50.426;7.664;2023-06-22T18:42:25;982.12;;;22.55;100.00
29815;BME280;16708;50.426;7.664;2023-06-22T18:47:19;982.20;;;22.46;100.00
29815;BME280;16708;50.426;7.664;2023-06-22T18:52:13;982.13;;;22.33;100.00
29815;BME280;16708;50.426;7.664;2023-06-22T18:57:07;982.22;;;22.22;100.00
29815;BME280;16708;50.426;7.664;2023-06-22T19:02:02;982.34;;;22.08;100.00
29815;BME280;16708;50.426;7.664;2023-06-22T19:16:40;982.67;;;21.93;100.00
29815;BME280;16708;50.426;7.664;2023-06-22T19:21:34;982.63;;;21.87;100.00
29815;BME280;16708;50.426;7.664;2023-06-22T19:26:28;982.64;;;21.67;100.00
29815;BME280;16708;50.426;7.664;2023-06-22T19:31:22;982.71;;;21.56;100.00
29815;BME280;16708;50.426;7.664;2023-06-22T19:36:17;982.54;;;21.51;100.00
29815;BME280;16708;50.426;7.664;2023-06-22T19:41:11;982.62;;;21.38;100.00
29815;BME280;16708;50.426;7.664;2023-06-22T19:46:03;982.55;;;21.30;100.00
29815;BME280;16708;50.426;7.664;2023-06-22T19:50:57;982.53;;;21.24;100.00
29815;BME280;16708;50.426;7.664;2023-06-22T19:55:52;982.58;;;21.14;100.00
29815;BME280;16708;50.426;7.664;2023-06-22T20:00:46;982.59;;;21.06;100.00
29815;BME280;16708;50.426;7.664;2023-06-22T20:15:29;982.72;;;20.58;100.00
29815;BME280;16708;50.426;7.664;2023-06-22T20:20:23;982.76;;;20.40;100.00
29815;BME280;16708;50.426;7.664;2023-06-22T20:30:11;982.93;;;19.63;100.00
29815;BME280;16708;50.426;7.664;2023-06-22T20:35:05;983.24;;;19.43;100.00
29815;BME280;16708;50.426;7.664;2023-06-22T20:39:59;983.30;;;19.16;100.00
29815;BME280;16708;50.426;7.664;2023-06-22T20:44:53;983.42;;;19.03;100.00
29815;BME280;16708;50.426;7.664;2023-06-22T20:49:48;983.53;;;18.79;100.00
29815;BME280;16708;50.426;7.664;2023-06-22T20:54:42;983.71;;;18.65;100.00
29815;BME280;16708;50.426;7.664;2023-06-22T20:59:37;983.86;;;18.56;100.00
29815;BME280;16708;50.426;7.664;2023-06-22T21:04:31;984.16;;;18.11;100.00
29815;BME280;16708;50.426;7.664;2023-06-22T21:09:25;984.05;;;17.96;100.00
29815;BME280;16708;50.426;7.664;2023-06-22T21:14:19;984.28;;;17.75;100.00
29815;BME280;16708;50.426;7.664;2023-06-22T21:19:13;984.62;;;17.54;100.00
29815;BME280;16708;50.426;7.664;2023-06-22T21:24:07;984.66;;;17.32;100.00
29815;BME280;16708;50.426;7.664;2023-06-22T21:29:02;984.84;;;17.21;100.00
29815;BME280;16708;50.426;7.664;2023-06-22T21:33:56;984.91;;;17.20;100.00
29815;BME280;16708;50.426;7.664;2023-06-22T21:38:50;984.85;;;17.23;100.00
29815;BME280;16708;50.426;7.664;2023-06-22T21:43:44;985.03;;;17.23;100.00
29815;BME280;16708;50.426;7.664;2023-06-22T21:48:38;985.21;;;17.32;100.00
29815;BME280;16708;50.426;7.664;2023-06-22T21:53:32;985.24;;;17.22;100.00
29815;BME280;16708;50.426;7.664;2023-06-22T21:58:25;985.28;;;17.20;100.00
29815;BME280;16708;50.426;7.664;2023-06-22T22:03:20;985.38;;;17.08;100.00
29815;BME280;16708;50.426;7.664;2023-06-22T22:08:14;985.35;;;16.98;100.00
29815;BME280;16708;50.426;7.664;2023-06-22T22:13:06;985.41;;;16.99;100.00
29815;BME280;16708;50.426;7.664;2023-06-22T22:18:01;985.61;;;17.05;100.00
29815;BME280;16708;50.426;7.664;2023-06-22T22:22:55;985.65;;;16.99;100.00
29815;BME280;16708;50.426;7.664;2023-06-22T22:27:49;985.52;;;17.09;100.00
29815;BME280;16708;50.426;7.664;2023-06-22T22:32:42;985.55;;;17.03;100.00
29815;BME280;16708;50.426;7.664;2023-06-22T22:37:36;985.74;;;17.09;100.00
29815;BME280;16708;50.426;7.664;2023-06-22T22:42:30;985.77;;;17.23;100.00
29815;BME280;16708;50.426;7.664;2023-06-22T22:47:25;986.01;;;17.31;100.00
29815;BME280;16708;50.426;7.664;2023-06-22T22:52:19;986.22;;;17.27;100.00
29815;BME280;16708;50.426;7.664;2023-06-22T22:57:14;986.29;;;17.37;100.00
29815;BME280;16708;50.426;7.664;2023-06-22T23:02:08;986.45;;;17.40;100.00
29815;BME280;16708;50.426;7.664;2023-06-22T23:07:03;986.55;;;17.54;100.00
29815;BME280;16708;50.426;7.664;2023-06-22T23:11:57;986.77;;;17.58;100.00
29815;BME280;16708;50.426;7.664;2023-06-22T23:16:51;986.74;;;17.62;100.00
29815;BME280;16708;50.426;7.664;2023-06-22T23:21:45;986.67;;;17.74;100.00
29815;BME280;16708;50.426;7.664;2023-06-22T23:26:39;986.96;;;17.71;100.00
29815;BME280;16708;50.426;7.664;2023-06-22T23:31:33;986.82;;;17.69;100.00
29815;BME280;16708;50.426;7.664;2023-06-22T23:36:27;986.70;;;17.71;100.00
29815;BME280;16708;50.426;7.664;2023-06-22T23:41:22;986.77;;;17.71;100.00
29815;BME280;16708;50.426;7.664;2023-06-22T23:46:16;986.72;;;17.72;100.00
29815;BME280;16708;50.426;7.664;2023-06-22T23:51:10;986.79;;;17.67;100.00
29815;BME280;16708;50.426;7.664;2023-06-22T23:56:05;986.74;;;17.69;100.00
